sensor_id;sensor_type;location;lat;lon;timestamp;P1;durP1;ratioP1;P2;durP2;ratioP2
23714;SDS011;12036;50.858;4.472;2023-07-13T00:01:54;5.88;;;1.77;;
23714;SDS011;12036;50.858;4.472;2023-07-13T00:04:20;6.45;;;1.27;;
23714;SDS011;12036;50.858;4.472;2023-07-13T00:06:51;4.95;;;1.40;;
23714;SDS011;12036;50.858;4.472;2023-07-13T00:09:17;4.68;;;1.42;;
23714;SDS011;12036;50.858;4.472;2023-07-13T00:11:44;9.85;;;1.40;;
23714;SDS011;12036;50.858;4.472;2023-07-13T00:14:12;4.75;;;1.23;;
23714;SDS011;12036;50.858;4.472;2023-07-13T00:16:39;6.10;;;1.60;;
23714;SDS011;12036;50.858;4.472;2023-07-13T00:19:09;7.47;;;1.42;;
23714;SDS011;12036;50.858;4.472;2023-07-13T00:21:36;5.32;;;1.40;;
23714;SDS011;12036;50.858;4.472;2023-07-13T00:24:02;7.85;;;1.48;;
23714;SDS011;12036;50.858;4.472;2023-07-13T00:26:28;7.00;;;1.70;;
23714;SDS011;12036;50.858;4.472;2023-07-13T00:28:54;6.93;;;1.50;;
23714;SDS011;12036;50.858;4.472;2023-07-13T00:31:20;9.23;;;1.77;;
23714;SDS011;12036;50.858;4.472;2023-07-13T00:33:46;5.25;;;1.50;;
23714;SDS011;12036;50.858;4.472;2023-07-13T00:36:11;7.40;;;1.52;;
23714;SDS011;12036;50.858;4.472;2023-07-13T00:38:37;7.60;;;1.65;;
23714;SDS011;12036;50.858;4.472;2023-07-13T00:41:03;12.93;;;1.83;;
23714;SDS011;12036;50.858;4.472;2023-07-13T00:43:29;7.85;;;1.63;;
23714;SDS011;12036;50.858;4.472;2023-07-13T00:48:23;4.35;;;1.30;;
23714;SDS011;12036;50.858;4.472;2023-07-13T00:50:55;6.70;;;1.23;;
23714;SDS011;12036;50.858;4.472;2023-07-13T00:53:23;7.57;;;1.70;;
23714;SDS011;12036;50.858;4.472;2023-07-13T00:55:51;7.60;;;1.77;;
23714;SDS011;12036;50.858;4.472;2023-07-13T00:58:19;7.35;;;1.50;;
23714;SDS011;12036;50.858;4.472;2023-07-13T01:00:45;6.43;;;1.60;;
23714;SDS011;12036;50.858;4.472;2023-07-13T01:03:13;4.95;;;1.33;;
23714;SDS011;12036;50.858;4.472;2023-07-13T01:05:40;7.68;;;1.70;;
23714;SDS011;12036;50.858;4.472;2023-07-13T01:08:05;9.15;;;1.95;;
23714;SDS011;12036;50.858;4.472;2023-07-13T01:10:31;7.82;;;1.95;;
23714;SDS011;12036;50.858;4.472;2023-07-13T01:13:04;9.52;;;1.60;;
23714;SDS011;12036;50.858;4.472;2023-07-13T01:15:42;8.10;;;1.40;;
23714;SDS011;12036;50.858;4.472;2023-07-13T01:18:12;5.30;;;1.48;;
23714;SDS011;12036;50.858;4.472;2023-07-13T01:20:40;7.63;;;1.38;;
23714;SDS011;12036;50.858;4.472;2023-07-13T01:23:10;6.28;;;1.75;;
23714;SDS011;12036;50.858;4.472;2023-07-13T01:25:38;3.78;;;1.40;;
23714;SDS011;12036;50.858;4.472;2023-07-13T01:28:04;6.20;;;1.70;;
23714;SDS011;12036;50.858;4.472;2023-07-13T01:30:31;6.47;;;1.58;;
23714;SDS011;12036;50.858;4.472;2023-07-13T01:32:57;8.45;;;1.52;;
23714;SDS011;12036;50.858;4.472;2023-07-13T01:35:24;5.55;;;1.38;;
23714;SDS011;12036;50.858;4.472;2023-07-13T01:37:52;4.78;;;1.77;;
23714;SDS011;12036;50.858;4.472;2023-07-13T01:40:18;8.07;;;1.70;;
23714;SDS011;12036;50.858;4.472;2023-07-13T01:42:43;5.03;;;1.45;;
23714;SDS011;12036;50.858;4.472;2023-07-13T01:45:09;4.43;;;1.30;;
23714;SDS011;12036;50.858;4.472;2023-07-13T01:47:35;7.50;;;1.65;;
23714;SDS011;12036;50.858;4.472;2023-07-13T01:50:00;8.50;;;1.67;;
23714;SDS011;12036;50.858;4.472;2023-07-13T01:52:26;5.95;;;1.73;;
23714;SDS011;12036;50.858;4.472;2023-07-13T01:54:51;9.52;;;1.75;;
23714;SDS011;12036;50.858;4.472;2023-07-13T01:57:17;5.10;;;1.20;;
23714;SDS011;12036;50.858;4.472;2023-07-13T01:59:43;11.43;;;1.60;;
23714;SDS011;12036;50.858;4.472;2023-07-13T02:02:08;5.25;;;1.77;;
23714;SDS011;12036;50.858;4.472;2023-07-13T02:04:34;10.60;;;1.50;;
23714;SDS011;12036;50.858;4.472;2023-07-13T02:07:01;9.05;;;1.48;;
23714;SDS011;12036;50.858;4.472;2023-07-13T02:09:27;8.52;;;1.80;;
23714;SDS011;12036;50.858;4.472;2023-07-13T02:11:52;6.72;;;1.80;;
23714;SDS011;12036;50.858;4.472;2023-07-13T02:14:18;7.35;;;1.65;;
23714;SDS011;12036;50.858;4.472;2023-07-13T02:16:44;6.50;;;1.98;;
23714;SDS011;12036;50.858;4.472;2023-07-13T02:19:09;5.43;;;1.67;;
23714;SDS011;12036;50.858;4.472;2023-07-13T02:21:35;8.50;;;1.90;;
23714;SDS011;12036;50.858;4.472;2023-07-13T02:24:00;7.75;;;1.80;;
23714;SDS011;12036;50.858;4.472;2023-07-13T02:26:26;5.82;;;1.65;;
23714;SDS011;12036;50.858;4.472;2023-07-13T02:28:52;7.50;;;1.52;;
23714;SDS011;12036;50.858;4.472;2023-07-13T02:31:18;8.45;;;1.73;;
23714;SDS011;12036;50.858;4.472;2023-07-13T02:33:43;10.77;;;2.13;;
23714;SDS011;12036;50.858;4.472;2023-07-13T02:36:09;8.93;;;1.80;;
23714;SDS011;12036;50.858;4.472;2023-07-13T02:38:36;8.93;;;2.15;;
23714;SDS011;12036;50.858;4.472;2023-07-13T02:41:05;12.20;;;2.08;;
23714;SDS011;12036;50.858;4.472;2023-07-13T02:43:31;11.23;;;2.13;;
23714;SDS011;12036;50.858;4.472;2023-07-13T02:46:01;9.88;;;2.28;;
23714;SDS011;12036;50.858;4.472;2023-07-13T02:48:32;8.18;;;1.70;;
23714;SDS011;12036;50.858;4.472;2023-07-13T02:50:58;9.82;;;1.98;;
23714;SDS011;12036;50.858;4.472;2023-07-13T02:53:24;6.50;;;1.80;;
23714;SDS011;12036;50.858;4.472;2023-07-13T02:55:50;12.43;;;2.10;;
23714;SDS011;12036;50.858;4.472;2023-07-13T02:58:15;14.48;;;2.33;;
23714;SDS011;12036;50.858;4.472;2023-07-13T03:00:42;7.82;;;2.10;;
23714;SDS011;12036;50.858;4.472;2023-07-13T03:03:10;7.57;;;1.75;;
23714;SDS011;12036;50.858;4.472;2023-07-13T03:05:38;8.18;;;1.85;;
23714;SDS011;12036;50.858;4.472;2023-07-13T03:08:07;13.50;;;2.03;;
23714;SDS011;12036;50.858;4.472;2023-07-13T03:10:33;8.43;;;2.08;;
23714;SDS011;12036;50.858;4.472;2023-07-13T03:12:58;11.25;;;2.42;;
23714;SDS011;12036;50.858;4.472;2023-07-13T03:15:24;4.18;;;1.58;;
23714;SDS011;12036;50.858;4.472;2023-07-13T03:17:50;10.77;;;2.03;;
23714;SDS011;12036;50.858;4.472;2023-07-13T03:20:15;9.10;;;2.08;;
23714;SDS011;12036;50.858;4.472;2023-07-13T03:22:41;7.22;;;2.05;;
23714;SDS011;12036;50.858;4.472;2023-07-13T03:25:07;10.13;;;2.00;;
23714;SDS011;12036;50.858;4.472;2023-07-13T03:27:33;10.40;;;1.92;;
23714;SDS011;12036;50.858;4.472;2023-07-13T03:29:59;8.50;;;2.35;;
23714;SDS011;12036;50.858;4.472;2023-07-13T03:32:24;8.57;;;2.10;;
23714;SDS011;12036;50.858;4.472;2023-07-13T03:34:50;9.15;;;2.20;;
23714;SDS011;12036;50.858;4.472;2023-07-13T03:37:16;8.60;;;1.73;;
23714;SDS011;12036;50.858;4.472;2023-07-13T03:39:41;6.80;;;1.70;;
23714;SDS011;12036;50.858;4.472;2023-07-13T03:42:07;8.82;;;2.17;;
23714;SDS011;12036;50.858;4.472;2023-07-13T03:44:33;12.70;;;2.75;;
23714;SDS011;12036;50.858;4.472;2023-07-13T03:47:00;9.18;;;1.88;;
23714;SDS011;12036;50.858;4.472;2023-07-13T03:49:26;10.32;;;2.65;;
23714;SDS011;12036;50.858;4.472;2023-07-13T03:51:51;8.85;;;2.10;;
23714;SDS011;12036;50.858;4.472;2023-07-13T03:54:17;7.88;;;1.85;;
23714;SDS011;12036;50.858;4.472;2023-07-13T03:56:43;10.35;;;2.20;;
23714;SDS011;12036;50.858;4.472;2023-07-13T03:59:08;9.70;;;2.20;;
23714;SDS011;12036;50.858;4.472;2023-07-13T04:01:34;7.03;;;1.92;;
23714;SDS011;12036;50.858;4.472;2023-07-13T04:03:59;6.68;;;2.20;;
23714;SDS011;12036;50.858;4.472;2023-07-13T04:06:26;14.88;;;2.38;;
23714;SDS011;12036;50.858;4.472;2023-07-13T04:08:55;11.77;;;2.50;;
23714;SDS011;12036;50.858;4.472;2023-07-13T04:11:24;11.68;;;2.13;;
23714;SDS011;12036;50.858;4.472;2023-07-13T04:13:51;8.48;;;2.00;;
23714;SDS011;12036;50.858;4.472;2023-07-13T04:16:17;11.18;;;2.63;;
23714;SDS011;12036;50.858;4.472;2023-07-13T04:18:43;8.15;;;1.80;;
23714;SDS011;12036;50.858;4.472;2023-07-13T04:21:10;8.20;;;2.25;;
23714;SDS011;12036;50.858;4.472;2023-07-13T04:23:39;8.55;;;2.15;;
23714;SDS011;12036;50.858;4.472;2023-07-13T04:26:05;8.75;;;2.10;;
23714;SDS011;12036;50.858;4.472;2023-07-13T04:28:32;10.05;;;2.55;;
23714;SDS011;12036;50.858;4.472;2023-07-13T04:30:58;10.73;;;2.50;;
23714;SDS011;12036;50.858;4.472;2023-07-13T04:33:24;13.98;;;2.30;;
23714;SDS011;12036;50.858;4.472;2023-07-13T04:35:50;6.40;;;2.05;;
23714;SDS011;12036;50.858;4.472;2023-07-13T04:38:25;11.02;;;2.22;;
23714;SDS011;12036;50.858;4.472;2023-07-13T04:40:55;14.07;;;2.78;;
23714;SDS011;12036;50.858;4.472;2023-07-13T04:43:23;7.22;;;2.10;;
23714;SDS011;12036;50.858;4.472;2023-07-13T04:45:50;11.15;;;2.63;;
23714;SDS011;12036;50.858;4.472;2023-07-13T04:48:16;12.52;;;2.33;;
23714;SDS011;12036;50.858;4.472;2023-07-13T04:50:42;10.80;;;2.58;;
23714;SDS011;12036;50.858;4.472;2023-07-13T04:53:08;9.48;;;2.47;;
23714;SDS011;12036;50.858;4.472;2023-07-13T04:55:35;9.15;;;2.50;;
23714;SDS011;12036;50.858;4.472;2023-07-13T04:58:01;8.65;;;2.45;;
23714;SDS011;12036;50.858;4.472;2023-07-13T05:00:28;15.48;;;2.58;;
23714;SDS011;12036;50.858;4.472;2023-07-13T05:02:57;8.48;;;2.35;;
23714;SDS011;12036;50.858;4.472;2023-07-13T05:05:24;8.45;;;2.50;;
23714;SDS011;12036;50.858;4.472;2023-07-13T05:07:51;10.25;;;2.58;;
23714;SDS011;12036;50.858;4.472;2023-07-13T05:10:18;11.65;;;2.60;;
23714;SDS011;12036;50.858;4.472;2023-07-13T05:12:44;13.20;;;2.97;;
23714;SDS011;12036;50.858;4.472;2023-07-13T05:15:10;18.15;;;2.50;;
23714;SDS011;12036;50.858;4.472;2023-07-13T05:17:35;12.00;;;2.72;;
23714;SDS011;12036;50.858;4.472;2023-07-13T05:20:03;11.88;;;2.50;;
23714;SDS011;12036;50.858;4.472;2023-07-13T05:22:30;14.95;;;2.72;;
23714;SDS011;12036;50.858;4.472;2023-07-13T05:24:56;12.00;;;2.50;;
23714;SDS011;12036;50.858;4.472;2023-07-13T05:27:22;14.88;;;2.55;;
23714;SDS011;12036;50.858;4.472;2023-07-13T05:29:48;12.93;;;2.42;;
23714;SDS011;12036;50.858;4.472;2023-07-13T05:32:14;9.18;;;2.83;;
23714;SDS011;12036;50.858;4.472;2023-07-13T05:34:39;15.13;;;2.58;;
23714;SDS011;12036;50.858;4.472;2023-07-13T05:37:05;15.80;;;2.53;;
23714;SDS011;12036;50.858;4.472;2023-07-13T05:39:31;7.47;;;2.40;;
23714;SDS011;12036;50.858;4.472;2023-07-13T05:41:56;11.30;;;2.38;;
23714;SDS011;12036;50.858;4.472;2023-07-13T05:44:22;12.07;;;2.60;;
23714;SDS011;12036;50.858;4.472;2023-07-13T05:46:48;10.15;;;2.58;;
23714;SDS011;12036;50.858;4.472;2023-07-13T05:49:14;13.68;;;2.25;;
23714;SDS011;12036;50.858;4.472;2023-07-13T05:51:39;17.27;;;2.72;;
23714;SDS011;12036;50.858;4.472;2023-07-13T05:54:05;16.92;;;3.08;;
23714;SDS011;12036;50.858;4.472;2023-07-13T05:56:30;13.77;;;3.38;;
23714;SDS011;12036;50.858;4.472;2023-07-13T05:58:56;8.52;;;2.60;;
23714;SDS011;12036;50.858;4.472;2023-07-13T06:01:22;8.95;;;2.75;;
23714;SDS011;12036;50.858;4.472;2023-07-13T06:03:48;10.63;;;2.40;;
23714;SDS011;12036;50.858;4.472;2023-07-13T06:06:14;10.27;;;2.95;;
23714;SDS011;12036;50.858;4.472;2023-07-13T06:08:40;11.05;;;2.47;;
23714;SDS011;12036;50.858;4.472;2023-07-13T06:11:09;8.93;;;2.35;;
23714;SDS011;12036;50.858;4.472;2023-07-13T06:13:38;7.80;;;2.78;;
23714;SDS011;12036;50.858;4.472;2023-07-13T06:16:05;13.95;;;2.72;;
23714;SDS011;12036;50.858;4.472;2023-07-13T06:18:32;14.77;;;2.88;;
23714;SDS011;12036;50.858;4.472;2023-07-13T06:20:58;12.57;;;3.10;;
23714;SDS011;12036;50.858;4.472;2023-07-13T06:23:24;7.95;;;2.58;;
23714;SDS011;12036;50.858;4.472;2023-07-13T06:25:50;12.63;;;3.10;;
23714;SDS011;12036;50.858;4.472;2023-07-13T06:28:16;10.77;;;2.90;;
23714;SDS011;12036;50.858;4.472;2023-07-13T06:30:42;12.88;;;2.97;;
23714;SDS011;12036;50.858;4.472;2023-07-13T06:33:08;6.78;;;1.88;;
23714;SDS011;12036;50.858;4.472;2023-07-13T06:35:33;8.90;;;2.63;;
23714;SDS011;12036;50.858;4.472;2023-07-13T06:37:59;8.18;;;2.00;;
23714;SDS011;12036;50.858;4.472;2023-07-13T06:40:25;10.77;;;2.67;;
23714;SDS011;12036;50.858;4.472;2023-07-13T06:42:53;11.65;;;2.65;;
23714;SDS011;12036;50.858;4.472;2023-07-13T06:45:18;9.45;;;2.22;;
23714;SDS011;12036;50.858;4.472;2023-07-13T06:47:44;11.68;;;2.47;;
23714;SDS011;12036;50.858;4.472;2023-07-13T06:50:10;13.25;;;3.25;;
23714;SDS011;12036;50.858;4.472;2023-07-13T06:52:35;18.60;;;2.80;;
23714;SDS011;12036;50.858;4.472;2023-07-13T06:55:01;12.32;;;3.05;;
23714;SDS011;12036;50.858;4.472;2023-07-13T06:57:26;11.07;;;2.63;;
23714;SDS011;12036;50.858;4.472;2023-07-13T06:59:52;11.93;;;2.88;;
23714;SDS011;12036;50.858;4.472;2023-07-13T07:02:18;10.45;;;2.75;;
23714;SDS011;12036;50.858;4.472;2023-07-13T07:04:43;10.45;;;2.70;;
23714;SDS011;12036;50.858;4.472;2023-07-13T07:07:09;9.75;;;2.53;;
23714;SDS011;12036;50.858;4.472;2023-07-13T07:09:35;13.00;;;2.40;;
23714;SDS011;12036;50.858;4.472;2023-07-13T07:12:01;9.13;;;2.67;;
23714;SDS011;12036;50.858;4.472;2023-07-13T07:14:28;11.00;;;2.75;;
23714;SDS011;12036;50.858;4.472;2023-07-13T07:16:53;10.38;;;2.45;;
23714;SDS011;12036;50.858;4.472;2023-07-13T07:19:19;6.97;;;3.03;;
23714;SDS011;12036;50.858;4.472;2023-07-13T07:21:45;10.80;;;2.70;;
23714;SDS011;12036;50.858;4.472;2023-07-13T07:24:10;10.98;;;2.72;;
23714;SDS011;12036;50.858;4.472;2023-07-13T07:26:36;14.50;;;3.35;;
23714;SDS011;12036;50.858;4.472;2023-07-13T07:29:02;12.35;;;2.90;;
23714;SDS011;12036;50.858;4.472;2023-07-13T07:31:27;11.93;;;3.53;;
23714;SDS011;12036;50.858;4.472;2023-07-13T07:33:53;15.98;;;3.22;;
23714;SDS011;12036;50.858;4.472;2023-07-13T07:36:19;15.10;;;3.28;;
23714;SDS011;12036;50.858;4.472;2023-07-13T07:38:44;16.13;;;4.07;;
23714;SDS011;12036;50.858;4.472;2023-07-13T07:41:10;11.82;;;2.83;;
23714;SDS011;12036;50.858;4.472;2023-07-13T07:43:36;13.32;;;3.15;;
23714;SDS011;12036;50.858;4.472;2023-07-13T07:46:02;10.15;;;3.47;;
23714;SDS011;12036;50.858;4.472;2023-07-13T07:48:28;11.70;;;3.00;;
23714;SDS011;12036;50.858;4.472;2023-07-13T07:50:54;6.72;;;2.30;;
23714;SDS011;12036;50.858;4.472;2023-07-13T07:53:20;8.05;;;2.25;;
23714;SDS011;12036;50.858;4.472;2023-07-13T07:55:45;11.43;;;2.80;;
23714;SDS011;12036;50.858;4.472;2023-07-13T07:58:11;9.73;;;3.22;;
23714;SDS011;12036;50.858;4.472;2023-07-13T08:00:37;10.20;;;2.42;;
23714;SDS011;12036;50.858;4.472;2023-07-13T08:03:02;10.65;;;3.10;;
23714;SDS011;12036;50.858;4.472;2023-07-13T08:05:28;10.75;;;3.20;;
23714;SDS011;12036;50.858;4.472;2023-07-13T08:07:55;6.32;;;1.92;;
23714;SDS011;12036;50.858;4.472;2023-07-13T08:10:20;15.77;;;3.13;;
23714;SDS011;12036;50.858;4.472;2023-07-13T08:12:46;6.88;;;2.15;;
23714;SDS011;12036;50.858;4.472;2023-07-13T08:15:13;9.45;;;2.17;;
23714;SDS011;12036;50.858;4.472;2023-07-13T08:17:40;13.52;;;3.42;;
23714;SDS011;12036;50.858;4.472;2023-07-13T08:20:06;13.05;;;5.13;;
23714;SDS011;12036;50.858;4.472;2023-07-13T08:22:33;13.38;;;4.68;;
23714;SDS011;12036;50.858;4.472;2023-07-13T08:25:00;15.32;;;2.60;;
23714;SDS011;12036;50.858;4.472;2023-07-13T08:27:26;14.68;;;3.00;;
23714;SDS011;12036;50.858;4.472;2023-07-13T08:29:53;12.43;;;3.88;;
23714;SDS011;12036;50.858;4.472;2023-07-13T08:32:20;11.70;;;4.60;;
23714;SDS011;12036;50.858;4.472;2023-07-13T08:34:46;5.80;;;2.20;;
23714;SDS011;12036;50.858;4.472;2023-07-13T08:37:13;9.63;;;2.03;;
23714;SDS011;12036;50.858;4.472;2023-07-13T08:39:39;12.32;;;2.72;;
23714;SDS011;12036;50.858;4.472;2023-07-13T08:42:05;4.93;;;2.25;;
23714;SDS011;12036;50.858;4.472;2023-07-13T08:47:22;12.90;;;2.78;;
23714;SDS011;12036;50.858;4.472;2023-07-13T08:49:49;6.68;;;1.77;;
23714;SDS011;12036;50.858;4.472;2023-07-13T08:54:49;7.03;;;1.90;;
23714;SDS011;12036;50.858;4.472;2023-07-13T08:57:17;5.47;;;1.70;;
23714;SDS011;12036;50.858;4.472;2023-07-13T08:59:45;10.18;;;2.17;;
23714;SDS011;12036;50.858;4.472;2023-07-13T09:04:58;5.20;;;1.98;;
23714;SDS011;12036;50.858;4.472;2023-07-13T09:07:52;5.10;;;1.92;;
23714;SDS011;12036;50.858;4.472;2023-07-13T09:10:43;6.45;;;1.95;;
23714;SDS011;12036;50.858;4.472;2023-07-13T09:16:07;6.50;;;2.13;;
23714;SDS011;12036;50.858;4.472;2023-07-13T09:18:39;6.80;;;2.13;;
23714;SDS011;12036;50.858;4.472;2023-07-13T09:21:13;9.57;;;1.90;;
23714;SDS011;12036;50.858;4.472;2023-07-13T09:23:43;7.03;;;2.15;;
23714;SDS011;12036;50.858;4.472;2023-07-13T09:26:21;9.55;;;2.10;;
23714;SDS011;12036;50.858;4.472;2023-07-13T09:28:53;9.05;;;2.10;;
23714;SDS011;12036;50.858;4.472;2023-07-13T09:31:29;7.03;;;2.88;;
23714;SDS011;12036;50.858;4.472;2023-07-13T09:33:59;8.48;;;2.67;;
23714;SDS011;12036;50.858;4.472;2023-07-13T09:36:32;5.60;;;1.55;;
23714;SDS011;12036;50.858;4.472;2023-07-13T09:44:36;10.57;;;3.10;;
23714;SDS011;12036;50.858;4.472;2023-07-13T09:47:12;8.45;;;2.30;;
23714;SDS011;12036;50.858;4.472;2023-07-13T09:49:42;8.00;;;1.92;;
23714;SDS011;12036;50.858;4.472;2023-07-13T09:52:14;4.30;;;1.40;;
23714;SDS011;12036;50.858;4.472;2023-07-13T09:54:44;5.47;;;2.00;;
23714;SDS011;12036;50.858;4.472;2023-07-13T09:57:17;6.20;;;1.80;;
23714;SDS011;12036;50.858;4.472;2023-07-13T09:59:45;6.28;;;1.92;;
23714;SDS011;12036;50.858;4.472;2023-07-13T10:04:58;8.07;;;1.60;;
23714;SDS011;12036;50.858;4.472;2023-07-13T10:09:58;5.32;;;1.88;;
23714;SDS011;12036;50.858;4.472;2023-07-13T10:12:29;3.97;;;1.30;;
23714;SDS011;12036;50.858;4.472;2023-07-13T10:15:00;6.30;;;1.55;;
23714;SDS011;12036;50.858;4.472;2023-07-13T10:17:29;5.35;;;1.40;;
23714;SDS011;12036;50.858;4.472;2023-07-13T10:19:59;6.18;;;1.25;;
23714;SDS011;12036;50.858;4.472;2023-07-13T10:24:58;5.47;;;1.17;;
23714;SDS011;12036;50.858;4.472;2023-07-13T10:30:00;3.42;;;1.17;;
23714;SDS011;12036;50.858;4.472;2023-07-13T10:32:46;3.70;;;1.10;;
23714;SDS011;12036;50.858;4.472;2023-07-13T10:35:14;6.88;;;1.70;;
23714;SDS011;12036;50.858;4.472;2023-07-13T10:37:45;7.33;;;1.30;;
23714;SDS011;12036;50.858;4.472;2023-07-13T10:40:41;4.68;;;1.30;;
23714;SDS011;12036;50.858;4.472;2023-07-13T10:43:17;3.38;;;1.17;;
23714;SDS011;12036;50.858;4.472;2023-07-13T10:45:47;5.85;;;1.30;;
23714;SDS011;12036;50.858;4.472;2023-07-13T10:48:15;4.93;;;1.20;;
23714;SDS011;12036;50.858;4.472;2023-07-13T10:50:42;3.75;;;1.20;;
23714;SDS011;12036;50.858;4.472;2023-07-13T10:55:58;6.60;;;1.55;;
23714;SDS011;12036;50.858;4.472;2023-07-13T10:58:29;6.60;;;1.42;;
23714;SDS011;12036;50.858;4.472;2023-07-13T11:03:32;8.15;;;1.38;;
23714;SDS011;12036;50.858;4.472;2023-07-13T11:09:43;6.90;;;2.40;;
23714;SDS011;12036;50.858;4.472;2023-07-13T11:11:46;5.95;;;2.67;;
23714;SDS011;12036;50.858;4.472;2023-07-13T11:17:23;5.05;;;1.98;;
23714;SDS011;12036;50.858;4.472;2023-07-13T11:22:47;4.80;;;1.20;;
23714;SDS011;12036;50.858;4.472;2023-07-13T11:25:36;3.75;;;1.50;;
23714;SDS011;12036;50.858;4.472;2023-07-13T11:41:17;6.07;;;1.27;;
23714;SDS011;12036;50.858;4.472;2023-07-13T11:43:50;3.03;;;1.20;;
23714;SDS011;12036;50.858;4.472;2023-07-13T11:46:20;3.33;;;1.13;;
23714;SDS011;12036;50.858;4.472;2023-07-13T11:48:48;5.85;;;1.42;;
23714;SDS011;12036;50.858;4.472;2023-07-13T11:51:28;6.43;;;1.42;;
23714;SDS011;12036;50.858;4.472;2023-07-13T11:53:57;5.13;;;1.15;;
23714;SDS011;12036;50.858;4.472;2023-07-13T11:56:27;4.80;;;1.40;;
23714;SDS011;12036;50.858;4.472;2023-07-13T11:58:55;6.40;;;1.95;;
23714;SDS011;12036;50.858;4.472;2023-07-13T12:01:24;7.13;;;1.73;;
23714;SDS011;12036;50.858;4.472;2023-07-13T12:03:57;5.03;;;1.50;;
23714;SDS011;12036;50.858;4.472;2023-07-13T12:06:28;6.07;;;1.70;;
23714;SDS011;12036;50.858;4.472;2023-07-13T12:09:02;4.10;;;1.88;;
23714;SDS011;12036;50.858;4.472;2023-07-13T12:11:37;4.38;;;1.55;;
23714;SDS011;12036;50.858;4.472;2023-07-13T12:14:05;6.10;;;1.70;;
23714;SDS011;12036;50.858;4.472;2023-07-13T12:16:32;4.65;;;1.85;;
23714;SDS011;12036;50.858;4.472;2023-07-13T12:18:58;5.78;;;2.00;;
23714;SDS011;12036;50.858;4.472;2023-07-13T12:21:37;7.20;;;2.75;;
23714;SDS011;12036;50.858;4.472;2023-07-13T12:24:04;4.85;;;1.92;;
23714;SDS011;12036;50.858;4.472;2023-07-13T12:26:38;4.45;;;1.70;;
23714;SDS011;12036;50.858;4.472;2023-07-13T12:29:05;5.57;;;1.38;;
23714;SDS011;12036;50.858;4.472;2023-07-13T12:31:33;3.88;;;1.33;;
23714;SDS011;12036;50.858;4.472;2023-07-13T12:34:07;4.18;;;0.93;;
23714;SDS011;12036;50.858;4.472;2023-07-13T12:44:49;1.50;;;0.88;;
23714;SDS011;12036;50.858;4.472;2023-07-13T12:47:15;1.08;;;0.70;;
23714;SDS011;12036;50.858;4.472;2023-07-13T12:49:42;3.33;;;0.88;;
23714;SDS011;12036;50.858;4.472;2023-07-13T12:52:14;2.05;;;0.90;;
23714;SDS011;12036;50.858;4.472;2023-07-13T12:54:41;3.65;;;1.20;;
23714;SDS011;12036;50.858;4.472;2023-07-13T12:57:17;4.32;;;1.30;;
23714;SDS011;12036;50.858;4.472;2023-07-13T12:59:42;2.80;;;1.35;;
23714;SDS011;12036;50.858;4.472;2023-07-13T13:04:56;5.30;;;2.35;;
23714;SDS011;12036;50.858;4.472;2023-07-13T13:07:23;10.02;;;4.82;;
23714;SDS011;12036;50.858;4.472;2023-07-13T13:09:49;9.70;;;4.07;;
23714;SDS011;12036;50.858;4.472;2023-07-13T13:12:15;9.55;;;3.42;;
23714;SDS011;12036;50.858;4.472;2023-07-13T13:14:42;9.23;;;4.60;;
23714;SDS011;12036;50.858;4.472;2023-07-13T13:20:16;4.35;;;1.80;;
23714;SDS011;12036;50.858;4.472;2023-07-13T13:22:45;5.13;;;1.90;;
23714;SDS011;12036;50.858;4.472;2023-07-13T13:25:11;3.30;;;1.77;;
23714;SDS011;12036;50.858;4.472;2023-07-13T13:27:38;6.05;;;1.77;;
23714;SDS011;12036;50.858;4.472;2023-07-13T13:30:10;4.63;;;1.58;;
23714;SDS011;12036;50.858;4.472;2023-07-13T13:32:38;2.20;;;1.20;;
23714;SDS011;12036;50.858;4.472;2023-07-13T13:35:14;3.80;;;1.40;;
23714;SDS011;12036;50.858;4.472;2023-07-13T13:37:41;4.55;;;1.70;;
23714;SDS011;12036;50.858;4.472;2023-07-13T13:40:14;3.35;;;1.40;;
23714;SDS011;12036;50.858;4.472;2023-07-13T13:42:44;3.38;;;1.52;;
23714;SDS011;12036;50.858;4.472;2023-07-13T13:45:10;3.13;;;1.35;;
23714;SDS011;12036;50.858;4.472;2023-07-13T13:47:37;2.38;;;1.30;;
23714;SDS011;12036;50.858;4.472;2023-07-13T13:50:14;2.95;;;1.42;;
23714;SDS011;12036;50.858;4.472;2023-07-13T13:52:41;3.72;;;1.63;;
23714;SDS011;12036;50.858;4.472;2023-07-13T13:55:26;2.70;;;1.40;;
23714;SDS011;12036;50.858;4.472;2023-07-13T13:57:52;2.67;;;1.40;;
23714;SDS011;12036;50.858;4.472;2023-07-13T14:00:20;3.33;;;1.48;;
23714;SDS011;12036;50.858;4.472;2023-07-13T14:02:47;6.63;;;1.60;;
23714;SDS011;12036;50.858;4.472;2023-07-13T14:05:16;4.30;;;1.58;;
23714;SDS011;12036;50.858;4.472;2023-07-13T14:07:46;2.30;;;1.00;;
23714;SDS011;12036;50.858;4.472;2023-07-13T14:10:15;6.72;;;1.17;;
23714;SDS011;12036;50.858;4.472;2023-07-13T14:12:43;3.03;;;1.20;;
23714;SDS011;12036;50.858;4.472;2023-07-13T14:15:14;5.80;;;1.10;;
23714;SDS011;12036;50.858;4.472;2023-07-13T14:17:47;2.80;;;1.00;;
23714;SDS011;12036;50.858;4.472;2023-07-13T14:20:16;3.65;;;1.13;;
23714;SDS011;12036;50.858;4.472;2023-07-13T14:22:47;3.30;;;1.60;;
23714;SDS011;12036;50.858;4.472;2023-07-13T14:25:14;3.05;;;1.20;;
23714;SDS011;12036;50.858;4.472;2023-07-13T14:27:41;2.40;;;1.13;;
23714;SDS011;12036;50.858;4.472;2023-07-13T14:30:15;3.72;;;1.30;;
23714;SDS011;12036;50.858;4.472;2023-07-13T14:32:43;4.75;;;1.77;;
23714;SDS011;12036;50.858;4.472;2023-07-13T14:35:12;3.08;;;1.00;;
23714;SDS011;12036;50.858;4.472;2023-07-13T14:37:39;5.10;;;1.42;;
23714;SDS011;12036;50.858;4.472;2023-07-13T14:40:13;3.70;;;1.25;;
23714;SDS011;12036;50.858;4.472;2023-07-13T14:42:38;3.05;;;1.10;;
23714;SDS011;12036;50.858;4.472;2023-07-13T14:45:04;3.08;;;1.20;;
23714;SDS011;12036;50.858;4.472;2023-07-13T14:47:30;3.92;;;0.90;;
23714;SDS011;12036;50.858;4.472;2023-07-13T14:49:56;3.63;;;1.23;;
23714;SDS011;12036;50.858;4.472;2023-07-13T14:52:23;4.28;;;1.48;;
23714;SDS011;12036;50.858;4.472;2023-07-13T14:54:50;1.45;;;0.93;;
23714;SDS011;12036;50.858;4.472;2023-07-13T14:57:17;2.35;;;1.20;;
23714;SDS011;12036;50.858;4.472;2023-07-13T14:59:44;3.25;;;1.15;;
23714;SDS011;12036;50.858;4.472;2023-07-13T15:04:52;3.65;;;0.98;;
23714;SDS011;12036;50.858;4.472;2023-07-13T15:07:18;2.42;;;1.40;;
23714;SDS011;12036;50.858;4.472;2023-07-13T15:09:45;2.10;;;0.95;;
23714;SDS011;12036;50.858;4.472;2023-07-13T15:12:12;2.78;;;1.20;;
23714;SDS011;12036;50.858;4.472;2023-07-13T15:14:38;3.22;;;1.30;;
23714;SDS011;12036;50.858;4.472;2023-07-13T15:17:04;4.00;;;1.23;;
23714;SDS011;12036;50.858;4.472;2023-07-13T15:19:41;4.20;;;1.38;;
23714;SDS011;12036;50.858;4.472;2023-07-13T15:22:07;2.97;;;1.30;;
23714;SDS011;12036;50.858;4.472;2023-07-13T15:24:34;4.80;;;1.50;;
23714;SDS011;12036;50.858;4.472;2023-07-13T15:27:00;4.78;;;1.50;;
23714;SDS011;12036;50.858;4.472;2023-07-13T15:29:25;4.13;;;1.42;;
23714;SDS011;12036;50.858;4.472;2023-07-13T15:31:51;4.60;;;1.20;;
23714;SDS011;12036;50.858;4.472;2023-07-13T15:34:18;4.20;;;0.80;;
23714;SDS011;12036;50.858;4.472;2023-07-13T15:36:51;3.58;;;1.10;;
23714;SDS011;12036;50.858;4.472;2023-07-13T15:39:17;3.63;;;1.13;;
23714;SDS011;12036;50.858;4.472;2023-07-13T15:41:43;3.55;;;1.30;;
23714;SDS011;12036;50.858;4.472;2023-07-13T15:44:22;3.63;;;0.93;;
23714;SDS011;12036;50.858;4.472;2023-07-13T15:46:55;1.98;;;1.20;;
23714;SDS011;12036;50.858;4.472;2023-07-13T15:49:21;5.35;;;1.30;;
23714;SDS011;12036;50.858;4.472;2023-07-13T15:51:47;8.23;;;1.23;;
23714;SDS011;12036;50.858;4.472;2023-07-13T15:54:14;2.95;;;1.30;;
23714;SDS011;12036;50.858;4.472;2023-07-13T15:56:42;4.22;;;1.92;;
23714;SDS011;12036;50.858;4.472;2023-07-13T15:59:10;5.93;;;1.30;;
23714;SDS011;12036;50.858;4.472;2023-07-13T16:01:39;2.50;;;1.13;;